Subpeak Weather - Last 24 Hours


View Last Hour    View Last 24 Hours

Time
Avg. Air Temp
Dew Point
Avg. Rel Humidity
Avg. 2 Min Wind Speed
Max Gust Velocity
MGV Time
MGV Direction
Avg. Spot Wind Velocity
2014-07-23 04:00:006° C4° C84%19 km/h41 km/h2014-07-23 03:41:10SE24 km/h
2014-07-23 03:00:006° C4° C86%28 km/h35 km/h2014-07-23 02:31:10S19 km/h
2014-07-23 02:00:006° C4° C86%19 km/h45 km/h2014-07-23 01:17:10SE18 km/h
2014-07-23 01:00:006° C4° C86%21 km/h38 km/h2014-07-23 00:24:10S19 km/h
2014-07-23 00:00:006° C4° C87%15 km/h33 km/h2014-07-22 23:22:10SE19 km/h
2014-07-22 23:00:006° C4° C85%17 km/h34 km/h2014-07-22 22:54:10E18 km/h
2014-07-22 22:00:006° C4° C83%22 km/h37 km/h2014-07-22 21:06:10S19 km/h
2014-07-22 21:00:006° C3° C80%19 km/h34 km/h2014-07-22 20:02:10SE21 km/h
2014-07-22 20:00:006° C3° C80%25 km/h36 km/h2014-07-22 19:45:10SE22 km/h
2014-07-22 19:00:006° C2° C77%17 km/h36 km/h2014-07-22 18:04:10SE18 km/h
2014-07-22 18:00:006° C3° C75%19 km/h39 km/h2014-07-22 17:05:10SE21 km/h
2014-07-22 17:00:006° C2° C71%28 km/h54 km/h2014-07-22 16:33:10S36 km/h
2014-07-22 16:00:007° C1° C68%38 km/h57 km/h2014-07-22 15:53:10S37 km/h
2014-07-22 15:00:008° C1° C62%26 km/h47 km/h2014-07-22 14:05:10SE26 km/h
2014-07-22 14:00:009° C1° C59%26 km/h40 km/h2014-07-22 13:17:10SE17 km/h
2014-07-22 13:00:009° C0° C59%11 km/h38 km/h2014-07-22 12:38:10S16 km/h
2014-07-22 12:00:0010° C2° C61%9 km/h31 km/h2014-07-22 11:39:10SE13 km/h
2014-07-22 11:00:009° C3° C65%13 km/h32 km/h2014-07-22 10:16:10SE13 km/h
2014-07-22 10:00:008° C3° C69%15 km/h32 km/h2014-07-22 09:14:10S15 km/h
2014-07-22 09:00:008° C3° C69%17 km/h37 km/h2014-07-22 08:43:10S18 km/h
2014-07-22 08:00:008° C3° C67%15 km/h30 km/h2014-07-22 07:21:10SE16 km/h
2014-07-22 07:00:008° C2° C68%23 km/h31 km/h2014-07-22 06:59:10SE18 km/h
2014-07-22 06:00:008° C2° C68%19 km/h32 km/h2014-07-22 05:38:10SE21 km/h
2014-07-22 05:00:007° C2° C69%17 km/h24 km/h2014-07-22 04:55:10SE15 km/h